createdAt,value
2023-01-08T00:00:01.496Z,0.00
2023-01-08T00:02:28.507Z,0.00
2023-01-08T00:04:55.304Z,-0.10
2023-01-08T00:07:21.986Z,-0.10
2023-01-08T00:09:52.844Z,-0.20
2023-01-08T00:12:23.174Z,-0.20
2023-01-08T00:14:50.097Z,-0.10
2023-01-08T00:17:16.816Z,-0.20
2023-01-08T00:19:43.819Z,-0.20
2023-01-08T00:22:10.573Z,-0.20
2023-01-08T00:24:38.207Z,-0.30
2023-01-08T00:27:05.014Z,-0.30
2023-01-08T00:29:31.752Z,-0.30
2023-01-08T00:31:58.693Z,-0.30
2023-01-08T00:34:25.377Z,-0.40
2023-01-08T00:36:52.281Z,-0.40
2023-01-08T00:39:21.501Z,-0.40
2023-01-08T00:41:49.653Z,-0.50
2023-01-08T00:44:16.562Z,-0.50
2023-01-08T00:46:46.584Z,-0.50
2023-01-08T00:49:13.298Z,-0.50
2023-01-08T00:51:40.007Z,-0.50
2023-01-08T00:54:06.835Z,-0.50
2023-01-08T00:56:33.912Z,-0.50
2023-01-08T00:59:00.617Z,-0.50
2023-01-08T01:01:27.486Z,-0.50
2023-01-08T01:03:54.529Z,-0.50
2023-01-08T01:06:21.363Z,-0.60
2023-01-08T01:08:49.020Z,-0.60
2023-01-08T01:11:19.341Z,-0.60
2023-01-08T01:13:46.657Z,-0.60
2023-01-08T01:16:13.553Z,-0.60
2023-01-08T01:18:40.378Z,-0.60
2023-01-08T01:21:20.617Z,-0.60
2023-01-08T01:23:47.799Z,-0.60
2023-01-08T01:26:17.370Z,-0.60
2023-01-08T01:28:48.716Z,-0.60
2023-01-08T01:31:15.830Z,-0.60
2023-01-08T01:33:43.269Z,-0.60
2023-01-08T01:36:12.409Z,-0.60
2023-01-08T01:38:42.814Z,-0.60
2023-01-08T01:41:19.636Z,-0.60
2023-01-08T01:43:46.587Z,-0.60
2023-01-08T01:46:22.217Z,-0.50
2023-01-08T01:48:53.240Z,-0.60
2023-01-08T01:51:21.346Z,-0.60
2023-01-08T01:53:49.307Z,-0.60
2023-01-08T01:56:16.287Z,-0.60
2023-01-08T01:58:43.022Z,-0.60
2023-01-08T02:01:10.425Z,-0.70
2023-01-08T02:03:39.681Z,-0.80
2023-01-08T02:06:36.897Z,-0.80
2023-01-08T02:09:22.282Z,-0.80
2023-01-08T02:12:13.676Z,-0.80
2023-01-08T02:14:56.867Z,-0.80
2023-01-08T02:17:53.372Z,-0.80
2023-01-08T02:20:40.806Z,-0.90
2023-01-08T02:23:40.831Z,-0.90
2023-01-08T02:26:25.524Z,-0.90
2023-01-08T02:28:59.718Z,-1.00
2023-01-08T02:31:28.875Z,-1.10
2023-01-08T02:33:56.309Z,-1.10
2023-01-08T02:36:32.217Z,-1.10
2023-01-08T02:39:10.624Z,-1.20
2023-01-08T02:41:59.653Z,-1.20
2023-01-08T02:44:39.682Z,-1.20
2023-01-08T02:47:11.960Z,-1.20
2023-01-08T02:49:43.532Z,-1.30
2023-01-08T02:52:13.410Z,-1.30
2023-01-08T02:54:42.317Z,-1.30
2023-01-08T02:57:13.556Z,-1.30
2023-01-08T02:59:43.471Z,-1.30
2023-01-08T03:02:12.061Z,-1.40
2023-01-08T03:04:44.861Z,-1.40
2023-01-08T03:07:11.833Z,-1.40
2023-01-08T03:09:38.666Z,-1.50
2023-01-08T03:12:16.723Z,-1.50
2023-01-08T03:14:59.248Z,-1.50
2023-01-08T03:17:31.517Z,-1.50
2023-01-08T03:20:07.922Z,-1.60
2023-01-08T03:22:39.132Z,-1.60
2023-01-08T03:25:08.424Z,-1.60
2023-01-08T03:27:41.241Z,-1.70
2023-01-08T03:30:11.800Z,-1.70
2023-01-08T03:32:42.427Z,-1.70
2023-01-08T03:35:12.443Z,-1.70
2023-01-08T03:37:44.058Z,-1.70
2023-01-08T03:40:16.337Z,-1.70
2023-01-08T03:42:45.059Z,-1.70
2023-01-08T03:45:14.640Z,-1.80
2023-01-08T03:47:45.039Z,-1.80
2023-01-08T03:50:17.812Z,-1.80
2023-01-08T03:52:44.639Z,-1.80
2023-01-08T03:55:12.138Z,-1.90
2023-01-08T03:57:38.944Z,-1.90
2023-01-08T04:00:07.204Z,-1.90
2023-01-08T04:02:34.116Z,-1.90
2023-01-08T04:05:01.401Z,-1.90
2023-01-08T04:07:31.289Z,-2.00
2023-01-08T04:09:58.770Z,-1.90
2023-01-08T04:12:26.947Z,-2.00
2023-01-08T04:14:54.978Z,-1.90
2023-01-08T04:17:23.936Z,-2.00
2023-01-08T04:19:51.134Z,-2.00
2023-01-08T04:22:19.242Z,-2.00
2023-01-08T04:24:47.732Z,-2.00
2023-01-08T04:27:14.716Z,-2.00
2023-01-08T04:29:41.998Z,-2.00
2023-01-08T04:32:12.856Z,-1.90
2023-01-08T04:34:39.895Z,-2.00
2023-01-08T04:37:08.333Z,-2.00
2023-01-08T04:42:16.782Z,-2.00
2023-01-08T04:44:43.515Z,-2.00
2023-01-08T04:47:10.670Z,-2.10
2023-01-08T04:49:37.471Z,-2.10
2023-01-08T04:52:06.164Z,-2.10
2023-01-08T04:54:34.260Z,-2.10
2023-01-08T04:57:01.047Z,-2.10
2023-01-08T04:59:31.000Z,-2.10
2023-01-08T05:01:59.026Z,-2.20
2023-01-08T05:04:26.773Z,-2.20
2023-01-08T05:06:53.591Z,-2.20
2023-01-08T05:09:21.939Z,-2.20
2023-01-08T05:11:49.589Z,-2.20
2023-01-08T05:14:19.391Z,-2.20
2023-01-08T05:16:48.663Z,-2.20
2023-01-08T05:19:18.458Z,-2.20
2023-01-08T05:21:45.302Z,-2.10
2023-01-08T05:24:12.664Z,-2.10
2023-01-08T05:26:39.772Z,-2.10
2023-01-08T05:29:10.031Z,-2.10
2023-01-08T05:31:36.913Z,-2.20
2023-01-08T05:34:05.329Z,-2.10
2023-01-08T05:36:32.409Z,-2.20
2023-01-08T05:38:59.173Z,-2.20
2023-01-08T05:41:26.754Z,-2.20
2023-01-08T05:43:53.553Z,-2.20
2023-01-08T05:46:20.798Z,-2.20
2023-01-08T05:48:47.623Z,-2.30
2023-01-08T05:51:14.944Z,-2.30
2023-01-08T05:53:42.239Z,-2.30
2023-01-08T05:56:10.773Z,-2.30
2023-01-08T05:58:41.438Z,-2.30
2023-01-08T06:01:13.270Z,-2.30
2023-01-08T06:03:40.884Z,-2.30
2023-01-08T06:06:10.058Z,-2.30
2023-01-08T06:08:37.627Z,-2.30
2023-01-08T06:11:08.697Z,-2.30
2023-01-08T06:13:40.714Z,-2.30
2023-01-08T06:16:08.105Z,-2.30
2023-01-08T06:18:36.715Z,-2.30
2023-01-08T06:21:05.428Z,-2.30
2023-01-08T06:23:33.686Z,-2.30
2023-01-08T06:26:12.211Z,-2.30
2023-01-08T06:28:40.099Z,-2.30
2023-01-08T06:31:07.285Z,-2.30
2023-01-08T06:33:34.427Z,-2.30
2023-01-08T06:36:05.334Z,-2.30
2023-01-08T06:38:34.310Z,-2.30
2023-01-08T06:41:07.115Z,-2.30
2023-01-08T06:43:36.311Z,-2.30
2023-01-08T06:46:05.638Z,-2.30
2023-01-08T06:48:33.278Z,-2.30
2023-01-08T06:51:01.178Z,-2.30
2023-01-08T06:53:28.474Z,-2.20
2023-01-08T06:56:05.960Z,-2.20
2023-01-08T06:58:33.086Z,-2.10
2023-01-08T07:01:00.956Z,-2.20
2023-01-08T07:03:28.020Z,-2.20
2023-01-08T07:11:15.829Z,-2.10
2023-01-08T07:13:43.408Z,-2.00
2023-01-08T07:16:14.305Z,-2.00
2023-01-08T07:18:43.881Z,-2.00
2023-01-08T07:21:12.877Z,-2.00
2023-01-08T07:23:41.252Z,-1.90
2023-01-08T07:26:09.950Z,-1.90
2023-01-08T07:28:38.274Z,-1.90
2023-01-08T07:31:06.766Z,-1.80
2023-01-08T07:33:36.056Z,-1.80
2023-01-08T07:36:03.033Z,-1.70
2023-01-08T07:38:31.379Z,-1.70
2023-01-08T07:40:59.360Z,-1.60
2023-01-08T07:43:29.318Z,-1.60
2023-01-08T07:46:02.364Z,-1.50
2023-01-08T07:48:29.831Z,-1.50
2023-01-08T07:51:00.875Z,-1.40
2023-01-08T07:53:30.474Z,-1.40
2023-01-08T07:56:14.497Z,-1.30
2023-01-08T08:01:16.754Z,-1.20
2023-01-08T08:03:43.789Z,-1.10
2023-01-08T08:06:10.667Z,-1.10
2023-01-08T08:08:37.466Z,-1.00
2023-01-08T08:11:04.276Z,-1.00
2023-01-08T08:13:31.382Z,-0.90
2023-01-08T08:16:02.581Z,-0.90
2023-01-08T08:18:31.927Z,-0.80
2023-01-08T08:20:58.704Z,-0.80
2023-01-08T08:23:25.851Z,-0.70
2023-01-08T08:25:52.857Z,-0.60
2023-01-08T08:30:55.356Z,-0.50
2023-01-08T08:33:22.096Z,-0.40
2023-01-08T08:35:51.080Z,-0.30
2023-01-08T08:38:18.169Z,-0.30
2023-01-08T08:40:45.204Z,-0.20
2023-01-08T08:43:12.065Z,-0.10
2023-01-08T08:45:39.321Z,0.00
2023-01-08T08:48:08.278Z,0.00
2023-01-08T08:50:36.071Z,0.00
2023-01-08T08:53:05.283Z,0.00
2023-01-08T08:55:33.791Z,0.00
2023-01-08T08:58:12.672Z,0.00
2023-01-08T09:00:41.624Z,0.10
2023-01-08T09:03:17.315Z,0.10
2023-01-08T09:05:44.444Z,0.10
2023-01-08T09:08:16.549Z,0.20
2023-01-08T09:10:43.901Z,0.20
2023-01-08T09:13:11.405Z,0.30
2023-01-08T09:15:39.019Z,0.30
2023-01-08T09:18:08.448Z,0.30
2023-01-08T09:20:35.457Z,0.40
2023-01-08T09:23:03.194Z,0.40
2023-01-08T09:25:34.077Z,0.50
2023-01-08T09:28:04.367Z,0.60
2023-01-08T09:30:31.479Z,0.60
2023-01-08T09:33:03.096Z,0.70
2023-01-08T09:35:33.522Z,0.70
2023-01-08T09:38:00.806Z,0.80
2023-01-08T09:40:41.709Z,0.80
2023-01-08T09:43:17.982Z,0.80
2023-01-08T09:45:48.879Z,0.80
2023-01-08T09:48:18.702Z,0.80
2023-01-08T09:50:46.773Z,0.90
2023-01-08T09:53:15.897Z,0.90
2023-01-08T09:55:43.712Z,1.00
2023-01-08T09:58:43.853Z,1.10
2023-01-08T10:01:16.266Z,1.20
2023-01-08T10:03:46.789Z,1.30
2023-01-08T10:06:15.846Z,1.30
2023-01-08T10:08:42.904Z,1.50
2023-01-08T10:11:11.086Z,1.60
2023-01-08T10:13:41.628Z,1.70
2023-01-08T10:16:30.457Z,1.80
2023-01-08T10:18:58.517Z,1.90
2023-01-08T10:21:30.824Z,2.00
2023-01-08T10:24:00.152Z,2.10
2023-01-08T10:26:32.642Z,2.20
2023-01-08T10:29:02.435Z,2.30
2023-01-08T10:31:29.366Z,2.40
2023-01-08T10:33:56.102Z,2.60
2023-01-08T10:36:24.607Z,2.70
2023-01-08T10:38:56.238Z,2.80
2023-01-08T10:41:23.635Z,2.90
2023-01-08T10:44:15.158Z,3.00
2023-01-08T10:46:44.982Z,3.20
2023-01-08T10:49:20.006Z,3.30
2023-01-08T10:51:59.066Z,3.50
2023-01-08T10:54:44.271Z,3.60
2023-01-08T10:57:21.517Z,3.70
2023-01-08T10:59:48.655Z,3.70
2023-01-08T11:02:40.686Z,3.80
2023-01-08T11:05:11.744Z,3.90
2023-01-08T11:07:40.337Z,3.90
2023-01-08T11:10:25.091Z,4.00
2023-01-08T11:12:59.004Z,4.00
2023-01-08T11:15:31.791Z,4.10
2023-01-08T11:18:07.830Z,4.20
2023-01-08T11:20:36.331Z,4.30
2023-01-08T11:23:16.731Z,4.40
2023-01-08T11:25:49.054Z,4.50
2023-01-08T11:28:21.498Z,4.70
2023-01-08T11:31:00.969Z,4.80
2023-01-08T11:33:32.558Z,5.00
2023-01-08T11:36:32.566Z,5.10
2023-01-08T11:39:00.870Z,5.30
2023-01-08T11:41:52.990Z,5.40
2023-01-08T11:44:46.556Z,5.50
2023-01-08T11:47:25.657Z,5.70
2023-01-08T11:49:58.645Z,5.90
2023-01-08T11:53:07.115Z,6.00
2023-01-08T11:56:05.652Z,6.10
2023-01-08T11:59:01.650Z,6.20
2023-01-08T12:01:50.042Z,6.20
2023-01-08T12:04:59.256Z,6.20
2023-01-08T12:07:43.372Z,6.20
2023-01-08T12:10:27.673Z,6.20
2023-01-08T12:13:28.350Z,6.20
2023-01-08T12:16:11.502Z,6.20
2023-01-08T12:19:00.217Z,6.20
2023-01-08T12:22:05.885Z,6.20
2023-01-08T12:24:59.144Z,6.20
2023-01-08T12:27:56.519Z,6.10
2023-01-08T12:30:46.068Z,6.20
2023-01-08T12:33:37.439Z,6.20
2023-01-08T12:36:10.700Z,6.20
2023-01-08T12:38:44.996Z,6.10
2023-01-08T12:41:15.231Z,6.20
2023-01-08T12:43:57.901Z,6.20
2023-01-08T12:46:28.148Z,6.30
2023-01-08T12:48:59.707Z,6.30
2023-01-08T12:51:37.208Z,6.40
2023-01-08T12:54:34.146Z,6.40
2023-01-08T12:57:12.352Z,6.50
2023-01-08T12:59:45.099Z,6.40
2023-01-08T13:02:42.700Z,6.40
2023-01-08T13:05:14.757Z,6.30
2023-01-08T13:07:51.023Z,6.30
2023-01-08T13:10:35.676Z,6.30
2023-01-08T13:13:03.332Z,6.30
2023-01-08T13:15:31.330Z,6.30
2023-01-08T13:18:07.358Z,6.30
2023-01-08T13:20:34.721Z,6.30
2023-01-08T13:23:05.307Z,6.40
2023-01-08T13:25:36.932Z,6.30
2023-01-08T13:28:30.370Z,6.40
2023-01-08T13:31:20.187Z,6.40
2023-01-08T13:33:49.345Z,6.40
2023-01-08T13:36:17.367Z,6.40
2023-01-08T13:38:45.530Z,6.40
2023-01-08T13:42:06.856Z,6.40
2023-01-08T13:44:41.095Z,6.40
2023-01-08T13:47:17.476Z,6.30
2023-01-08T13:49:51.651Z,6.30
2023-01-08T13:52:57.869Z,6.30
2023-01-08T13:55:30.836Z,6.20
2023-01-08T13:58:04.758Z,6.20
2023-01-08T14:00:43.357Z,6.10
2023-01-08T14:03:30.843Z,6.10
2023-01-08T14:06:07.161Z,6.10
2023-01-08T14:08:36.494Z,6.00
2023-01-08T14:11:05.197Z,6.00
2023-01-08T14:13:35.594Z,5.90
2023-01-08T14:16:11.390Z,5.90
2023-01-08T14:18:44.342Z,5.80
2023-01-08T14:21:12.564Z,5.80
2023-01-08T14:23:46.756Z,5.60
2023-01-08T14:26:31.618Z,5.60
2023-01-08T14:29:01.516Z,5.60
2023-01-08T14:31:28.925Z,5.50
2023-01-08T14:33:58.568Z,5.50
2023-01-08T14:36:26.756Z,5.40
2023-01-08T14:38:53.780Z,5.40
2023-01-08T14:41:59.550Z,5.40
2023-01-08T14:44:37.116Z,5.30
2023-01-08T14:47:07.124Z,5.30
2023-01-08T14:49:40.857Z,5.30
2023-01-08T14:52:13.082Z,5.30
2023-01-08T14:54:40.109Z,5.30
2023-01-08T14:57:07.014Z,5.30
2023-01-08T14:59:37.765Z,5.30
2023-01-08T15:02:08.292Z,5.30
2023-01-08T15:04:35.180Z,5.30
2023-01-08T15:07:18.721Z,5.20
2023-01-08T15:09:56.146Z,5.20
2023-01-08T15:12:25.796Z,5.20
2023-01-08T15:14:55.030Z,5.20
2023-01-08T15:17:28.329Z,5.10
2023-01-08T15:19:59.363Z,5.10
2023-01-08T15:22:31.447Z,5.10
2023-01-08T15:25:05.214Z,5.10
2023-01-08T15:27:34.343Z,5.00
2023-01-08T15:30:03.793Z,5.00
2023-01-08T15:32:37.422Z,5.00
2023-01-08T15:35:16.291Z,4.90
2023-01-08T15:37:43.462Z,4.90
2023-01-08T15:40:12.212Z,4.90
2023-01-08T15:42:57.344Z,4.80
2023-01-08T15:45:29.389Z,4.80
2023-01-08T15:47:56.418Z,4.70
2023-01-08T15:50:25.814Z,4.70
2023-01-08T15:52:52.723Z,4.70
2023-01-08T15:55:21.737Z,4.60
2023-01-08T15:57:48.564Z,4.60
2023-01-08T16:00:16.743Z,4.50
2023-01-08T16:02:46.887Z,4.50
2023-01-08T16:05:15.547Z,4.40
2023-01-08T16:07:42.265Z,4.40
2023-01-08T16:10:09.397Z,4.40
2023-01-08T16:12:37.188Z,4.40
2023-01-08T16:15:07.921Z,4.40
2023-01-08T16:17:36.483Z,4.30
2023-01-08T16:20:04.904Z,4.30
2023-01-08T16:22:31.620Z,4.30
2023-01-08T16:24:58.344Z,4.30
2023-01-08T16:27:26.328Z,4.20
2023-01-08T16:29:53.030Z,4.20
2023-01-08T16:32:19.986Z,4.20
2023-01-08T16:34:46.658Z,4.20
2023-01-08T16:37:14.216Z,4.10
2023-01-08T16:39:40.965Z,4.10
2023-01-08T16:42:09.194Z,4.10
2023-01-08T16:44:36.542Z,4.00
2023-01-08T16:47:03.284Z,4.00
2023-01-08T16:49:30.606Z,4.00
2023-01-08T16:51:57.370Z,3.90
2023-01-08T16:54:25.803Z,3.90
2023-01-08T16:56:53.079Z,3.80
2023-01-08T16:59:23.647Z,3.80
2023-01-08T17:01:52.021Z,3.60
2023-01-08T17:04:19.244Z,3.50
2023-01-08T17:06:47.182Z,3.50
2023-01-08T17:09:15.040Z,3.40
2023-01-08T17:11:43.109Z,3.30
2023-01-08T17:14:10.092Z,3.30
2023-01-08T17:16:37.065Z,3.20
2023-01-08T17:19:04.581Z,3.10
2023-01-08T17:21:31.311Z,3.00
2023-01-08T17:23:59.353Z,3.00
2023-01-08T17:26:26.300Z,3.00
2023-01-08T17:28:53.040Z,2.90
2023-01-08T17:31:20.655Z,2.90
2023-01-08T17:33:51.450Z,2.80
2023-01-08T17:36:23.779Z,2.70
2023-01-08T17:38:53.599Z,2.70
2023-01-08T17:41:40.852Z,2.70
2023-01-08T17:44:11.596Z,2.70
2023-01-08T17:46:44.993Z,2.60
2023-01-08T17:49:14.209Z,2.60
2023-01-08T17:51:42.580Z,2.60
2023-01-08T17:54:14.990Z,2.50
2023-01-08T17:56:42.445Z,2.50
2023-01-08T17:59:13.709Z,2.40
2023-01-08T18:01:40.669Z,2.40
2023-01-08T18:04:07.549Z,2.40
2023-01-08T18:06:35.039Z,2.30
2023-01-08T18:09:01.778Z,2.30
2023-01-08T18:11:28.758Z,2.30
2023-01-08T18:14:01.936Z,2.40
2023-01-08T18:16:30.989Z,2.40
2023-01-08T18:18:59.505Z,2.40
2023-01-08T18:21:27.665Z,2.40
2023-01-08T18:23:54.455Z,2.40
2023-01-08T18:26:22.197Z,2.40
2023-01-08T18:28:49.062Z,2.40
2023-01-08T18:31:15.931Z,2.50
2023-01-08T18:33:42.721Z,2.40
2023-01-08T18:36:11.796Z,2.40
2023-01-08T18:38:43.358Z,2.50
2023-01-08T18:41:12.787Z,2.50
2023-01-08T18:43:42.217Z,2.50
2023-01-08T18:46:09.280Z,2.50
2023-01-08T18:48:36.547Z,2.50
2023-01-08T18:51:05.974Z,2.50
2023-01-08T18:53:33.579Z,2.50
2023-01-08T18:56:01.307Z,2.50
2023-01-08T18:58:29.125Z,2.50
2023-01-08T19:00:56.269Z,2.50
2023-01-08T19:03:23.366Z,2.50
2023-01-08T19:05:50.105Z,2.50
2023-01-08T19:08:17.000Z,2.60
2023-01-08T19:10:43.963Z,2.60
2023-01-08T19:13:10.944Z,2.60
2023-01-08T19:15:39.879Z,2.60
2023-01-08T19:18:08.924Z,2.60
2023-01-08T19:20:43.477Z,2.60
2023-01-08T19:23:10.241Z,2.60
2023-01-08T19:25:39.923Z,2.60
2023-01-08T19:28:07.244Z,2.60
2023-01-08T19:30:35.591Z,2.60
2023-01-08T19:33:02.501Z,2.70
2023-01-08T19:35:29.520Z,2.70
2023-01-08T19:37:59.034Z,2.70
2023-01-08T19:40:27.295Z,2.70
2023-01-08T19:43:13.137Z,2.70
2023-01-08T19:45:40.206Z,2.80
2023-01-08T19:48:07.144Z,2.80
2023-01-08T19:50:36.838Z,2.80
2023-01-08T19:53:04.092Z,2.80
2023-01-08T19:55:31.129Z,2.80
2023-01-08T19:57:59.596Z,2.80
2023-01-08T20:00:27.506Z,2.80
2023-01-08T20:02:54.427Z,2.80
2023-01-08T20:05:21.388Z,2.80
2023-01-08T20:07:51.348Z,2.80
2023-01-08T20:10:18.364Z,2.80
2023-01-08T20:12:45.216Z,2.80
2023-01-08T20:15:12.204Z,2.80
2023-01-08T20:17:40.780Z,2.80
2023-01-08T20:20:08.822Z,2.80
2023-01-08T20:22:36.983Z,2.90
2023-01-08T20:25:04.898Z,2.90
2023-01-08T20:27:32.348Z,2.90
2023-01-08T20:29:59.093Z,2.90
2023-01-08T20:32:25.821Z,2.90
2023-01-08T20:34:52.646Z,2.90
2023-01-08T20:37:20.560Z,2.90
2023-01-08T20:39:47.571Z,2.90
2023-01-08T20:42:17.558Z,2.90
2023-01-08T20:44:54.279Z,2.90
2023-01-08T20:47:20.967Z,2.90
2023-01-08T20:49:50.371Z,2.90
2023-01-08T20:52:18.315Z,2.90
2023-01-08T20:54:45.197Z,2.90
2023-01-08T20:57:12.016Z,3.00
2023-01-08T20:59:38.967Z,2.90
2023-01-08T21:02:07.357Z,2.90
2023-01-08T21:04:34.141Z,3.00
2023-01-08T21:07:00.887Z,3.00
2023-01-08T21:09:28.393Z,2.90
2023-01-08T21:11:55.412Z,3.00
2023-01-08T21:14:22.391Z,3.00
2023-01-08T21:16:49.190Z,3.00
2023-01-08T21:19:16.489Z,3.00
2023-01-08T21:21:43.421Z,3.00
2023-01-08T21:24:12.626Z,3.00
2023-01-08T21:26:40.025Z,3.00
2023-01-08T21:29:07.805Z,3.00
2023-01-08T21:31:35.638Z,3.00
2023-01-08T21:34:03.915Z,3.00
2023-01-08T21:36:32.132Z,3.00
2023-01-08T21:39:00.273Z,3.00
2023-01-08T21:41:46.627Z,3.00
2023-01-08T21:44:35.235Z,3.00
2023-01-08T21:47:05.881Z,3.00
2023-01-08T21:49:32.942Z,3.00
2023-01-08T21:52:18.350Z,3.00
2023-01-08T21:54:45.345Z,3.00
2023-01-08T21:57:15.348Z,3.00
2023-01-08T21:59:42.394Z,3.00
2023-01-08T22:02:15.343Z,3.00
2023-01-08T22:04:43.752Z,3.00
2023-01-08T22:07:11.037Z,3.00
2023-01-08T22:09:38.323Z,3.00
2023-01-08T22:12:06.680Z,3.00
2023-01-08T22:14:33.987Z,3.00
2023-01-08T22:17:00.946Z,3.00
2023-01-08T22:19:27.901Z,3.00
2023-01-08T22:21:54.538Z,3.00
2023-01-08T22:24:21.485Z,3.00
2023-01-08T22:26:50.746Z,3.00
2023-01-08T22:29:18.292Z,3.00
2023-01-08T22:31:47.299Z,3.00
2023-01-08T22:34:17.337Z,3.00
2023-01-08T22:36:45.277Z,3.00
2023-01-08T22:39:12.617Z,3.00
2023-01-08T22:41:43.884Z,3.00
2023-01-08T22:44:12.229Z,3.00
2023-01-08T22:46:38.879Z,3.00
2023-01-08T22:49:05.897Z,3.00
2023-01-08T22:51:32.924Z,3.00
2023-01-08T22:54:00.029Z,3.10
2023-01-08T22:56:27.153Z,3.00
2023-01-08T22:58:54.655Z,3.00
2023-01-08T23:01:24.104Z,3.10
2023-01-08T23:03:52.603Z,3.10
2023-01-08T23:06:20.740Z,3.10
2023-01-08T23:08:48.288Z,3.10
2023-01-08T23:11:16.936Z,3.10
2023-01-08T23:13:44.413Z,3.10
2023-01-08T23:16:14.545Z,3.10
2023-01-08T23:18:41.978Z,3.10
2023-01-08T23:21:11.941Z,3.10
2023-01-08T23:23:39.739Z,3.10
2023-01-08T23:26:09.106Z,3.10
2023-01-08T23:28:36.768Z,3.10
2023-01-08T23:31:15.094Z,3.00
2023-01-08T23:33:42.311Z,3.00
2023-01-08T23:36:09.973Z,3.00
2023-01-08T23:38:36.908Z,3.00
2023-01-08T23:41:07.140Z,3.00
2023-01-08T23:43:34.207Z,3.00
2023-01-08T23:46:06.923Z,3.00
2023-01-08T23:48:34.304Z,3.00
2023-01-08T23:51:02.594Z,2.90
2023-01-08T23:53:29.639Z,2.90
2023-01-08T23:55:59.399Z,2.90
2023-01-08T23:58:26.655Z,2.90
